sensor_id;sensor_type;location;lat;lon;timestamp;temperature;humidity
58638;DHT22;54976;51.510;7.522;2023-03-23T00:02:07;12.20;99.90
58638;DHT22;54976;51.510;7.522;2023-03-23T00:05:08;12.20;99.90
58638;DHT22;54976;51.510;7.522;2023-03-23T00:08:09;12.00;99.90
58638;DHT22;54976;51.510;7.522;2023-03-23T00:11:14;12.10;99.90
58638;DHT22;54976;51.510;7.522;2023-03-23T00:14:14;12.10;99.90
58638;DHT22;54976;51.510;7.522;2023-03-23T00:17:15;12.10;99.90
58638;DHT22;54976;51.510;7.522;2023-03-23T00:20:16;12.00;99.90
58638;DHT22;54976;51.510;7.522;2023-03-23T00:23:18;12.00;99.90
58638;DHT22;54976;51.510;7.522;2023-03-23T00:26:19;12.10;99.90
58638;DHT22;54976;51.510;7.522;2023-03-23T00:29:22;12.00;99.90
58638;DHT22;54976;51.510;7.522;2023-03-23T00:32:24;12.00;99.90
58638;DHT22;54976;51.510;7.522;2023-03-23T00:35:28;12.00;99.90
58638;DHT22;54976;51.510;7.522;2023-03-23T00:38:31;12.00;99.90
58638;DHT22;54976;51.510;7.522;2023-03-23T00:41:31;12.10;99.90
58638;DHT22;54976;51.510;7.522;2023-03-23T00:44:33;12.10;99.90
58638;DHT22;54976;51.510;7.522;2023-03-23T00:47:36;12.20;99.90
58638;DHT22;54976;51.510;7.522;2023-03-23T00:50:36;12.10;99.90
58638;DHT22;54976;51.510;7.522;2023-03-23T00:53:41;12.10;99.90
58638;DHT22;54976;51.510;7.522;2023-03-23T00:56:41;12.20;99.90
58638;DHT22;54976;51.510;7.522;2023-03-23T00:59:42;12.20;99.90
58638;DHT22;54976;51.510;7.522;2023-03-23T01:02:42;12.20;99.90
58638;DHT22;54976;51.510;7.522;2023-03-23T01:05:45;12.20;99.90
58638;DHT22;54976;51.510;7.522;2023-03-23T01:08:51;12.20;99.90
58638;DHT22;54976;51.510;7.522;2023-03-23T01:11:54;12.30;99.90
58638;DHT22;54976;51.510;7.522;2023-03-23T01:14:56;12.30;99.90
58638;DHT22;54976;51.510;7.522;2023-03-23T01:17:56;12.30;99.90
58638;DHT22;54976;51.510;7.522;2023-03-23T01:20:57;12.30;99.90
58638;DHT22;54976;51.510;7.522;2023-03-23T01:23:58;12.40;99.90
58638;DHT22;54976;51.510;7.522;2023-03-23T01:26:58;12.50;99.90
58638;DHT22;54976;51.510;7.522;2023-03-23T01:30:03;12.50;99.90
58638;DHT22;54976;51.510;7.522;2023-03-23T01:33:04;12.50;99.90
58638;DHT22;54976;51.510;7.522;2023-03-23T01:36:07;12.50;99.90
58638;DHT22;54976;51.510;7.522;2023-03-23T01:39:08;12.40;99.90
58638;DHT22;54976;51.510;7.522;2023-03-23T01:42:09;12.40;99.90
58638;DHT22;54976;51.510;7.522;2023-03-23T01:48:21;12.10;99.90
58638;DHT22;54976;51.510;7.522;2023-03-23T01:51:22;12.10;99.90
58638;DHT22;54976;51.510;7.522;2023-03-23T01:54:23;12.00;99.90
58638;DHT22;54976;51.510;7.522;2023-03-23T01:57:26;12.10;99.90
58638;DHT22;54976;51.510;7.522;2023-03-23T02:00:27;12.10;99.90
58638;DHT22;54976;51.510;7.522;2023-03-23T02:03:28;12.20;99.90
58638;DHT22;54976;51.510;7.522;2023-03-23T02:06:31;12.00;99.90
58638;DHT22;54976;51.510;7.522;2023-03-23T02:09:32;12.10;99.90
58638;DHT22;54976;51.510;7.522;2023-03-23T02:12:32;12.00;99.90
58638;DHT22;54976;51.510;7.522;2023-03-23T02:15:45;12.00;99.90
58638;DHT22;54976;51.510;7.522;2023-03-23T02:35:08;11.90;99.90
58638;DHT22;54976;51.510;7.522;2023-03-23T02:38:20;11.80;99.90
58638;DHT22;54976;51.510;7.522;2023-03-23T02:41:27;11.80;99.90
58638;DHT22;54976;51.510;7.522;2023-03-23T02:44:30;11.80;99.90
58638;DHT22;54976;51.510;7.522;2023-03-23T02:47:33;11.80;99.90
58638;DHT22;54976;51.510;7.522;2023-03-23T02:50:37;11.90;99.90
58638;DHT22;54976;51.510;7.522;2023-03-23T02:53:41;12.10;99.90
58638;DHT22;54976;51.510;7.522;2023-03-23T02:56:43;12.00;99.90
58638;DHT22;54976;51.510;7.522;2023-03-23T02:59:45;12.00;99.90
58638;DHT22;54976;51.510;7.522;2023-03-23T03:02:48;12.00;99.90
58638;DHT22;54976;51.510;7.522;2023-03-23T03:06:17;11.90;99.90
58638;DHT22;54976;51.510;7.522;2023-03-23T03:12:46;11.70;99.90
58638;DHT22;54976;51.510;7.522;2023-03-23T03:19:29;11.60;99.90
58638;DHT22;54976;51.510;7.522;2023-03-23T03:22:31;11.80;99.90
58638;DHT22;54976;51.510;7.522;2023-03-23T03:25:32;11.70;99.90
58638;DHT22;54976;51.510;7.522;2023-03-23T03:28:32;11.70;99.90
58638;DHT22;54976;51.510;7.522;2023-03-23T03:31:36;11.80;99.90
58638;DHT22;54976;51.510;7.522;2023-03-23T03:34:39;11.90;99.90
58638;DHT22;54976;51.510;7.522;2023-03-23T03:37:39;11.90;99.90
58638;DHT22;54976;51.510;7.522;2023-03-23T03:40:40;11.90;99.90
58638;DHT22;54976;51.510;7.522;2023-03-23T03:43:41;11.90;99.90
58638;DHT22;54976;51.510;7.522;2023-03-23T03:46:41;11.90;99.90
58638;DHT22;54976;51.510;7.522;2023-03-23T03:49:42;11.90;99.90
58638;DHT22;54976;51.510;7.522;2023-03-23T03:52:43;11.90;99.90
58638;DHT22;54976;51.510;7.522;2023-03-23T03:55:44;12.00;99.90
58638;DHT22;54976;51.510;7.522;2023-03-23T03:58:45;12.00;99.90
58638;DHT22;54976;51.510;7.522;2023-03-23T04:01:48;12.00;99.90
58638;DHT22;54976;51.510;7.522;2023-03-23T04:04:54;12.10;99.90
58638;DHT22;54976;51.510;7.522;2023-03-23T04:07:55;12.10;99.90
58638;DHT22;54976;51.510;7.522;2023-03-23T04:11:01;12.10;99.90
58638;DHT22;54976;51.510;7.522;2023-03-23T04:14:02;12.10;99.90
58638;DHT22;54976;51.510;7.522;2023-03-23T04:17:03;12.10;99.90
58638;DHT22;54976;51.510;7.522;2023-03-23T04:20:04;12.10;99.90
58638;DHT22;54976;51.510;7.522;2023-03-23T04:23:20;12.10;99.90
58638;DHT22;54976;51.510;7.522;2023-03-23T04:26:21;12.00;99.90
58638;DHT22;54976;51.510;7.522;2023-03-23T04:29:22;12.10;99.90
58638;DHT22;54976;51.510;7.522;2023-03-23T04:32:23;12.10;99.90
58638;DHT22;54976;51.510;7.522;2023-03-23T04:35:25;12.10;99.90
58638;DHT22;54976;51.510;7.522;2023-03-23T04:38:27;12.10;99.90
58638;DHT22;54976;51.510;7.522;2023-03-23T04:41:29;12.10;99.90
58638;DHT22;54976;51.510;7.522;2023-03-23T04:44:30;12.10;99.90
58638;DHT22;54976;51.510;7.522;2023-03-23T04:47:35;12.20;99.90
58638;DHT22;54976;51.510;7.522;2023-03-23T04:50:39;12.20;99.90
58638;DHT22;54976;51.510;7.522;2023-03-23T04:53:40;12.20;99.90
58638;DHT22;54976;51.510;7.522;2023-03-23T04:56:41;12.20;99.90
58638;DHT22;54976;51.510;7.522;2023-03-23T04:59:42;12.20;99.90
58638;DHT22;54976;51.510;7.522;2023-03-23T05:02:45;12.20;99.90
58638;DHT22;54976;51.510;7.522;2023-03-23T05:05:53;12.30;99.70
58638;DHT22;54976;51.510;7.522;2023-03-23T05:08:54;12.30;99.50
58638;DHT22;54976;51.510;7.522;2023-03-23T05:11:55;12.30;99.40
58638;DHT22;54976;51.510;7.522;2023-03-23T05:14:55;12.20;99.90
58638;DHT22;54976;51.510;7.522;2023-03-23T05:17:56;12.30;99.80
58638;DHT22;54976;51.510;7.522;2023-03-23T05:21:00;12.40;99.20
58638;DHT22;54976;51.510;7.522;2023-03-23T05:24:00;12.30;99.50
58638;DHT22;54976;51.510;7.522;2023-03-23T05:27:01;12.30;99.70
58638;DHT22;54976;51.510;7.522;2023-03-23T05:30:06;12.20;99.90
58638;DHT22;54976;51.510;7.522;2023-03-23T05:33:07;12.30;99.40
58638;DHT22;54976;51.510;7.522;2023-03-23T05:36:08;12.30;99.30
58638;DHT22;54976;51.510;7.522;2023-03-23T05:39:12;12.20;99.80
58638;DHT22;54976;51.510;7.522;2023-03-23T05:42:13;12.30;99.80
58638;DHT22;54976;51.510;7.522;2023-03-23T05:45:13;12.30;99.30
58638;DHT22;54976;51.510;7.522;2023-03-23T05:48:14;12.40;99.20
58638;DHT22;54976;51.510;7.522;2023-03-23T05:51:15;12.50;98.80
58638;DHT22;54976;51.510;7.522;2023-03-23T05:54:16;12.40;98.90
58638;DHT22;54976;51.510;7.522;2023-03-23T05:57:17;12.50;98.90
58638;DHT22;54976;51.510;7.522;2023-03-23T06:00:19;12.50;99.00
58638;DHT22;54976;51.510;7.522;2023-03-23T06:03:20;12.50;98.40
58638;DHT22;54976;51.510;7.522;2023-03-23T06:06:22;12.50;98.70
58638;DHT22;54976;51.510;7.522;2023-03-23T06:09:23;12.40;98.70
58638;DHT22;54976;51.510;7.522;2023-03-23T06:12:25;12.50;98.50
58638;DHT22;54976;51.510;7.522;2023-03-23T06:15:26;12.60;98.40
58638;DHT22;54976;51.510;7.522;2023-03-23T06:18:29;12.60;98.00
58638;DHT22;54976;51.510;7.522;2023-03-23T06:21:34;12.70;97.70
58638;DHT22;54976;51.510;7.522;2023-03-23T06:24:35;12.80;97.70
58638;DHT22;54976;51.510;7.522;2023-03-23T06:27:35;12.80;97.90
58638;DHT22;54976;51.510;7.522;2023-03-23T06:30:36;12.60;98.60
58638;DHT22;54976;51.510;7.522;2023-03-23T06:33:38;12.70;98.60
58638;DHT22;54976;51.510;7.522;2023-03-23T06:36:39;12.80;98.10
58638;DHT22;54976;51.510;7.522;2023-03-23T06:39:40;12.70;98.30
58638;DHT22;54976;51.510;7.522;2023-03-23T06:42:41;12.80;98.10
58638;DHT22;54976;51.510;7.522;2023-03-23T06:45:41;13.00;97.30
58638;DHT22;54976;51.510;7.522;2023-03-23T06:48:42;13.00;97.30
58638;DHT22;54976;51.510;7.522;2023-03-23T06:51:42;13.20;97.00
58638;DHT22;54976;51.510;7.522;2023-03-23T06:54:43;13.20;96.70
58638;DHT22;54976;51.510;7.522;2023-03-23T06:57:44;13.30;96.70
58638;DHT22;54976;51.510;7.522;2023-03-23T07:00:45;13.30;96.80
58638;DHT22;54976;51.510;7.522;2023-03-23T07:03:46;13.30;96.50
58638;DHT22;54976;51.510;7.522;2023-03-23T07:06:47;13.50;95.80
58638;DHT22;54976;51.510;7.522;2023-03-23T07:09:47;13.50;95.40
58638;DHT22;54976;51.510;7.522;2023-03-23T07:12:48;13.50;95.90
58638;DHT22;54976;51.510;7.522;2023-03-23T07:15:49;13.80;95.20
58638;DHT22;54976;51.510;7.522;2023-03-23T07:18:50;13.70;94.60
58638;DHT22;54976;51.510;7.522;2023-03-23T07:21:51;13.80;93.90
58638;DHT22;54976;51.510;7.522;2023-03-23T07:24:52;13.80;94.20
58638;DHT22;54976;51.510;7.522;2023-03-23T07:27:52;13.90;93.70
58638;DHT22;54976;51.510;7.522;2023-03-23T07:30:53;13.80;94.60
58638;DHT22;54976;51.510;7.522;2023-03-23T07:33:53;13.90;93.80
58638;DHT22;54976;51.510;7.522;2023-03-23T07:36:54;13.90;93.00
58638;DHT22;54976;51.510;7.522;2023-03-23T07:39:55;13.80;93.40
58638;DHT22;54976;51.510;7.522;2023-03-23T07:42:56;14.00;93.00
58638;DHT22;54976;51.510;7.522;2023-03-23T07:45:57;14.10;92.90
58638;DHT22;54976;51.510;7.522;2023-03-23T07:48:58;14.20;91.90
58638;DHT22;54976;51.510;7.522;2023-03-23T07:51:59;14.30;92.10
58638;DHT22;54976;51.510;7.522;2023-03-23T07:55:02;14.40;91.10
58638;DHT22;54976;51.510;7.522;2023-03-23T07:58:03;14.30;91.00
58638;DHT22;54976;51.510;7.522;2023-03-23T08:01:04;14.30;91.30
58638;DHT22;54976;51.510;7.522;2023-03-23T08:04:05;14.40;91.00
58638;DHT22;54976;51.510;7.522;2023-03-23T08:07:06;14.40;90.50
58638;DHT22;54976;51.510;7.522;2023-03-23T08:10:07;14.40;90.00
58638;DHT22;54976;51.510;7.522;2023-03-23T08:13:11;14.40;89.80
58638;DHT22;54976;51.510;7.522;2023-03-23T08:16:12;14.40;89.90
58638;DHT22;54976;51.510;7.522;2023-03-23T08:19:14;14.50;88.50
58638;DHT22;54976;51.510;7.522;2023-03-23T08:22:15;14.50;89.70
58638;DHT22;54976;51.510;7.522;2023-03-23T08:25:16;14.50;87.30
58638;DHT22;54976;51.510;7.522;2023-03-23T08:28:18;14.50;88.50
58638;DHT22;54976;51.510;7.522;2023-03-23T08:31:19;14.50;88.70
58638;DHT22;54976;51.510;7.522;2023-03-23T08:34:20;14.70;87.10
58638;DHT22;54976;51.510;7.522;2023-03-23T08:37:21;14.70;86.70
58638;DHT22;54976;51.510;7.522;2023-03-23T08:40:23;14.90;86.90
58638;DHT22;54976;51.510;7.522;2023-03-23T08:43:24;14.80;85.60
58638;DHT22;54976;51.510;7.522;2023-03-23T08:46:25;14.90;84.50
58638;DHT22;54976;51.510;7.522;2023-03-23T08:49:25;15.00;83.00
58638;DHT22;54976;51.510;7.522;2023-03-23T08:52:26;15.10;82.70
58638;DHT22;54976;51.510;7.522;2023-03-23T08:55:28;15.00;82.10
58638;DHT22;54976;51.510;7.522;2023-03-23T08:58:28;15.10;81.60
58638;DHT22;54976;51.510;7.522;2023-03-23T09:01:29;15.20;81.00
58638;DHT22;54976;51.510;7.522;2023-03-23T09:04:30;15.30;80.30
58638;DHT22;54976;51.510;7.522;2023-03-23T09:07:31;15.10;79.80
58638;DHT22;54976;51.510;7.522;2023-03-23T09:10:32;15.10;81.30
58638;DHT22;54976;51.510;7.522;2023-03-23T09:13:34;15.20;80.90
58638;DHT22;54976;51.510;7.522;2023-03-23T09:16:35;15.30;78.30
58638;DHT22;54976;51.510;7.522;2023-03-23T09:19:35;15.60;77.90
58638;DHT22;54976;51.510;7.522;2023-03-23T09:22:37;15.80;75.80
58638;DHT22;54976;51.510;7.522;2023-03-23T09:25:38;15.80;74.90
58638;DHT22;54976;51.510;7.522;2023-03-23T09:28:39;15.90;75.70
58638;DHT22;54976;51.510;7.522;2023-03-23T09:31:40;15.90;75.00
58638;DHT22;54976;51.510;7.522;2023-03-23T09:34:42;15.60;75.70
58638;DHT22;54976;51.510;7.522;2023-03-23T09:37:45;15.70;77.40
58638;DHT22;54976;51.510;7.522;2023-03-23T09:43:55;15.80;74.50
58638;DHT22;54976;51.510;7.522;2023-03-23T09:50:25;15.50;76.20
58638;DHT22;54976;51.510;7.522;2023-03-23T09:53:39;15.60;75.50
58638;DHT22;54976;51.510;7.522;2023-03-23T09:56:42;15.60;76.00
58638;DHT22;54976;51.510;7.522;2023-03-23T10:00:03;15.70;72.60
58638;DHT22;54976;51.510;7.522;2023-03-23T10:03:17;15.50;73.90
58638;DHT22;54976;51.510;7.522;2023-03-23T10:06:19;15.60;73.10
58638;DHT22;54976;51.510;7.522;2023-03-23T10:09:19;15.90;72.20
58638;DHT22;54976;51.510;7.522;2023-03-23T10:12:42;16.00;70.20
58638;DHT22;54976;51.510;7.522;2023-03-23T10:15:46;16.50;68.40
58638;DHT22;54976;51.510;7.522;2023-03-23T10:18:49;16.50;67.00
58638;DHT22;54976;51.510;7.522;2023-03-23T10:21:59;16.40;67.60
58638;DHT22;54976;51.510;7.522;2023-03-23T10:25:23;16.20;66.80
58638;DHT22;54976;51.510;7.522;2023-03-23T10:28:42;15.90;68.30
58638;DHT22;54976;51.510;7.522;2023-03-23T10:31:58;15.60;70.50
58638;DHT22;54976;51.510;7.522;2023-03-23T10:35:03;15.20;75.80
58638;DHT22;54976;51.510;7.522;2023-03-23T10:38:11;14.80;78.30
58638;DHT22;54976;51.510;7.522;2023-03-23T10:41:18;14.60;83.00
58638;DHT22;54976;51.510;7.522;2023-03-23T10:44:21;14.00;88.50
58638;DHT22;54976;51.510;7.522;2023-03-23T10:47:22;13.40;93.00
58638;DHT22;54976;51.510;7.522;2023-03-23T10:50:30;12.90;95.70
58638;DHT22;54976;51.510;7.522;2023-03-23T10:53:42;12.70;97.30
58638;DHT22;54976;51.510;7.522;2023-03-23T10:56:44;12.60;97.70
58638;DHT22;54976;51.510;7.522;2023-03-23T10:59:48;12.30;98.20
58638;DHT22;54976;51.510;7.522;2023-03-23T11:06:05;12.50;99.40
58638;DHT22;54976;51.510;7.522;2023-03-23T11:09:13;12.90;98.30
58638;DHT22;54976;51.510;7.522;2023-03-23T11:12:18;13.00;97.70
58638;DHT22;54976;51.510;7.522;2023-03-23T11:21:36;12.80;98.60
58638;DHT22;54976;51.510;7.522;2023-03-23T11:24:41;12.60;98.50
58638;DHT22;54976;51.510;7.522;2023-03-23T11:27:43;12.30;99.60
58638;DHT22;54976;51.510;7.522;2023-03-23T11:30:44;12.30;99.90
58638;DHT22;54976;51.510;7.522;2023-03-23T11:33:56;12.20;99.90
58638;DHT22;54976;51.510;7.522;2023-03-23T11:37:06;12.20;99.90
58638;DHT22;54976;51.510;7.522;2023-03-23T11:43:14;12.40;99.90
58638;DHT22;54976;51.510;7.522;2023-03-23T11:59:31;12.00;99.90
58638;DHT22;54976;51.510;7.522;2023-03-23T12:02:42;12.00;99.90
58638;DHT22;54976;51.510;7.522;2023-03-23T12:09:06;11.80;99.90
58638;DHT22;54976;51.510;7.522;2023-03-23T12:12:29;11.80;99.90
58638;DHT22;54976;51.510;7.522;2023-03-23T12:19:00;12.30;99.90
58638;DHT22;54976;51.510;7.522;2023-03-23T12:32:25;12.50;99.90
58638;DHT22;54976;51.510;7.522;2023-03-23T12:36:38;12.60;99.90
58638;DHT22;54976;51.510;7.522;2023-03-23T12:49:01;12.50;99.90
58638;DHT22;54976;51.510;7.522;2023-03-23T12:55:23;12.40;99.90
58638;DHT22;54976;51.510;7.522;2023-03-23T12:58:27;12.40;99.90
58638;DHT22;54976;51.510;7.522;2023-03-23T13:01:34;12.30;99.90
58638;DHT22;54976;51.510;7.522;2023-03-23T13:04:40;12.40;99.90
58638;DHT22;54976;51.510;7.522;2023-03-23T13:07:49;12.30;99.90
58638;DHT22;54976;51.510;7.522;2023-03-23T13:10:56;12.30;99.90
58638;DHT22;54976;51.510;7.522;2023-03-23T13:17:48;12.20;99.90
58638;DHT22;54976;51.510;7.522;2023-03-23T13:21:12;12.30;99.90
58638;DHT22;54976;51.510;7.522;2023-03-23T13:24:17;12.30;99.90
58638;DHT22;54976;51.510;7.522;2023-03-23T13:27:23;12.30;99.90
58638;DHT22;54976;51.510;7.522;2023-03-23T13:30:30;12.30;99.90
58638;DHT22;54976;51.510;7.522;2023-03-23T13:33:33;12.40;99.90
58638;DHT22;54976;51.510;7.522;2023-03-23T13:36:38;12.40;99.90
58638;DHT22;54976;51.510;7.522;2023-03-23T13:40:11;12.50;99.90
58638;DHT22;54976;51.510;7.522;2023-03-23T13:43:25;12.50;99.90
58638;DHT22;54976;51.510;7.522;2023-03-23T13:46:29;12.70;99.90
58638;DHT22;54976;51.510;7.522;2023-03-23T13:49:32;12.90;99.90
58638;DHT22;54976;51.510;7.522;2023-03-23T13:55:50;13.80;99.90
58638;DHT22;54976;51.510;7.522;2023-03-23T13:59:13;14.30;99.90
58638;DHT22;54976;51.510;7.522;2023-03-23T14:05:36;14.10;99.90
58638;DHT22;54976;51.510;7.522;2023-03-23T14:08:40;14.00;99.80
58638;DHT22;54976;51.510;7.522;2023-03-23T14:12:03;13.80;99.90
58638;DHT22;54976;51.510;7.522;2023-03-23T14:15:13;13.70;99.90
58638;DHT22;54976;51.510;7.522;2023-03-23T14:18:15;13.60;99.90
58638;DHT22;54976;51.510;7.522;2023-03-23T14:21:21;13.60;99.90
58638;DHT22;54976;51.510;7.522;2023-03-23T14:24:24;13.70;99.90
58638;DHT22;54976;51.510;7.522;2023-03-23T14:27:26;13.60;99.90
58638;DHT22;54976;51.510;7.522;2023-03-23T14:30:35;13.60;99.90
58638;DHT22;54976;51.510;7.522;2023-03-23T14:33:38;13.80;99.90
58638;DHT22;54976;51.510;7.522;2023-03-23T14:36:42;13.90;99.90
58638;DHT22;54976;51.510;7.522;2023-03-23T14:39:50;14.10;99.90
58638;DHT22;54976;51.510;7.522;2023-03-23T14:42:51;14.20;99.90
58638;DHT22;54976;51.510;7.522;2023-03-23T14:45:58;14.10;99.90
58638;DHT22;54976;51.510;7.522;2023-03-23T14:49:03;14.10;99.90
58638;DHT22;54976;51.510;7.522;2023-03-23T14:52:13;13.90;99.90
58638;DHT22;54976;51.510;7.522;2023-03-23T14:55:18;13.90;99.90
58638;DHT22;54976;51.510;7.522;2023-03-23T14:58:21;14.40;99.90
58638;DHT22;54976;51.510;7.522;2023-03-23T15:01:23;16.10;99.90
58638;DHT22;54976;51.510;7.522;2023-03-23T15:04:25;17.70;96.80
58638;DHT22;54976;51.510;7.522;2023-03-23T15:07:30;18.70;92.50
58638;DHT22;54976;51.510;7.522;2023-03-23T15:10:32;19.40;90.30
58638;DHT22;54976;51.510;7.522;2023-03-23T15:13:34;19.60;88.10
58638;DHT22;54976;51.510;7.522;2023-03-23T15:16:36;20.10;82.30
58638;DHT22;54976;51.510;7.522;2023-03-23T15:19:40;19.80;77.70
58638;DHT22;54976;51.510;7.522;2023-03-23T15:22:46;19.30;79.90
58638;DHT22;54976;51.510;7.522;2023-03-23T15:25:51;17.80;85.40
58638;DHT22;54976;51.510;7.522;2023-03-23T15:32:10;16.40;92.50
58638;DHT22;54976;51.510;7.522;2023-03-23T15:35:15;16.30;93.40
58638;DHT22;54976;51.510;7.522;2023-03-23T15:38:26;15.80;94.00
58638;DHT22;54976;51.510;7.522;2023-03-23T15:41:31;15.70;93.70
58638;DHT22;54976;51.510;7.522;2023-03-23T15:44:35;15.90;94.50
58638;DHT22;54976;51.510;7.522;2023-03-23T15:50:41;16.80;91.40
58638;DHT22;54976;51.510;7.522;2023-03-23T15:53:42;17.20;88.70
58638;DHT22;54976;51.510;7.522;2023-03-23T15:56:43;17.40;87.30
58638;DHT22;54976;51.510;7.522;2023-03-23T15:59:44;17.00;88.90
58638;DHT22;54976;51.510;7.522;2023-03-23T16:02:46;16.40;89.00
58638;DHT22;54976;51.510;7.522;2023-03-23T16:05:49;16.50;88.40
58638;DHT22;54976;51.510;7.522;2023-03-23T16:08:49;16.50;90.10
58638;DHT22;54976;51.510;7.522;2023-03-23T16:11:50;16.40;89.10
58638;DHT22;54976;51.510;7.522;2023-03-23T16:14:51;16.40;87.60
58638;DHT22;54976;51.510;7.522;2023-03-23T16:17:52;15.90;90.10
58638;DHT22;54976;51.510;7.522;2023-03-23T16:20:53;15.80;89.20
58638;DHT22;54976;51.510;7.522;2023-03-23T16:23:54;15.60;88.50
58638;DHT22;54976;51.510;7.522;2023-03-23T16:26:55;15.30;91.40
58638;DHT22;54976;51.510;7.522;2023-03-23T16:29:56;15.20;91.20
58638;DHT22;54976;51.510;7.522;2023-03-23T16:32:58;14.90;93.10
58638;DHT22;54976;51.510;7.522;2023-03-23T16:35:59;14.70;94.10
58638;DHT22;54976;51.510;7.522;2023-03-23T16:38:59;14.50;94.90
58638;DHT22;54976;51.510;7.522;2023-03-23T16:42:00;14.50;95.40
58638;DHT22;54976;51.510;7.522;2023-03-23T16:45:01;14.60;95.10
58638;DHT22;54976;51.510;7.522;2023-03-23T16:48:01;14.60;95.50
58638;DHT22;54976;51.510;7.522;2023-03-23T16:51:02;14.40;96.10
58638;DHT22;54976;51.510;7.522;2023-03-23T16:54:03;14.30;96.70
58638;DHT22;54976;51.510;7.522;2023-03-23T16:57:03;14.10;97.10
58638;DHT22;54976;51.510;7.522;2023-03-23T17:00:12;14.00;97.70
58638;DHT22;54976;51.510;7.522;2023-03-23T17:03:16;14.00;98.40
58638;DHT22;54976;51.510;7.522;2023-03-23T17:06:16;13.90;98.70
58638;DHT22;54976;51.510;7.522;2023-03-23T17:09:17;13.90;97.90
58638;DHT22;54976;51.510;7.522;2023-03-23T17:12:18;13.80;98.20
58638;DHT22;54976;51.510;7.522;2023-03-23T17:15:19;13.70;98.50
58638;DHT22;54976;51.510;7.522;2023-03-23T17:18:19;13.60;99.20
58638;DHT22;54976;51.510;7.522;2023-03-23T17:21:20;13.40;99.90
58638;DHT22;54976;51.510;7.522;2023-03-23T17:24:25;13.30;99.90
58638;DHT22;54976;51.510;7.522;2023-03-23T17:27:26;13.20;99.90
58638;DHT22;54976;51.510;7.522;2023-03-23T17:30:27;13.20;99.90
58638;DHT22;54976;51.510;7.522;2023-03-23T17:33:28;13.10;99.90
58638;DHT22;54976;51.510;7.522;2023-03-23T17:36:28;12.90;99.90
58638;DHT22;54976;51.510;7.522;2023-03-23T17:39:30;12.80;99.90
58638;DHT22;54976;51.510;7.522;2023-03-23T17:42:31;12.70;99.90
58638;DHT22;54976;51.510;7.522;2023-03-23T17:45:31;12.60;99.90
58638;DHT22;54976;51.510;7.522;2023-03-23T17:48:32;12.60;99.90
58638;DHT22;54976;51.510;7.522;2023-03-23T17:51:33;12.60;99.90
58638;DHT22;54976;51.510;7.522;2023-03-23T17:54:34;12.50;99.90
58638;DHT22;54976;51.510;7.522;2023-03-23T17:57:34;12.60;99.90
58638;DHT22;54976;51.510;7.522;2023-03-23T18:00:35;12.60;99.90
58638;DHT22;54976;51.510;7.522;2023-03-23T18:03:36;12.60;99.90
58638;DHT22;54976;51.510;7.522;2023-03-23T18:06:37;12.70;99.90
58638;DHT22;54976;51.510;7.522;2023-03-23T18:09:38;12.70;99.90
58638;DHT22;54976;51.510;7.522;2023-03-23T18:12:39;12.80;99.90
58638;DHT22;54976;51.510;7.522;2023-03-23T18:15:43;12.90;99.60
58638;DHT22;54976;51.510;7.522;2023-03-23T18:18:44;12.90;99.60
58638;DHT22;54976;51.510;7.522;2023-03-23T18:21:46;12.90;99.60
58638;DHT22;54976;51.510;7.522;2023-03-23T18:24:47;13.00;98.50
58638;DHT22;54976;51.510;7.522;2023-03-23T18:27:47;13.00;98.40
58638;DHT22;54976;51.510;7.522;2023-03-23T18:30:48;13.00;98.00
58638;DHT22;54976;51.510;7.522;2023-03-23T18:33:50;13.00;98.20
58638;DHT22;54976;51.510;7.522;2023-03-23T18:36:50;12.80;98.20
58638;DHT22;54976;51.510;7.522;2023-03-23T18:39:51;12.70;98.20
58638;DHT22;54976;51.510;7.522;2023-03-23T18:42:53;12.70;97.80
58638;DHT22;54976;51.510;7.522;2023-03-23T18:45:55;12.60;98.00
58638;DHT22;54976;51.510;7.522;2023-03-23T18:48:56;12.60;97.40
58638;DHT22;54976;51.510;7.522;2023-03-23T18:51:56;12.80;97.10
58638;DHT22;54976;51.510;7.522;2023-03-23T18:54:57;12.50;96.90
58638;DHT22;54976;51.510;7.522;2023-03-23T18:57:58;12.40;97.20
58638;DHT22;54976;51.510;7.522;2023-03-23T19:01:04;12.40;96.70
58638;DHT22;54976;51.510;7.522;2023-03-23T19:04:06;12.40;97.10
58638;DHT22;54976;51.510;7.522;2023-03-23T19:07:07;12.30;97.30
58638;DHT22;54976;51.510;7.522;2023-03-23T19:10:07;12.30;96.30
58638;DHT22;54976;51.510;7.522;2023-03-23T19:13:09;12.30;96.60
58638;DHT22;54976;51.510;7.522;2023-03-23T19:16:10;12.30;96.90
58638;DHT22;54976;51.510;7.522;2023-03-23T19:19:11;12.30;97.10
58638;DHT22;54976;51.510;7.522;2023-03-23T19:22:12;12.20;96.30
58638;DHT22;54976;51.510;7.522;2023-03-23T19:25:13;12.30;96.70
58638;DHT22;54976;51.510;7.522;2023-03-23T19:28:14;12.20;96.20
58638;DHT22;54976;51.510;7.522;2023-03-23T19:31:15;12.20;96.10
58638;DHT22;54976;51.510;7.522;2023-03-23T19:34:17;12.20;96.50
58638;DHT22;54976;51.510;7.522;2023-03-23T19:37:18;12.10;96.80
58638;DHT22;54976;51.510;7.522;2023-03-23T19:40:19;12.10;96.70
58638;DHT22;54976;51.510;7.522;2023-03-23T19:43:20;12.10;96.90
58638;DHT22;54976;51.510;7.522;2023-03-23T19:46:21;12.00;96.90
58638;DHT22;54976;51.510;7.522;2023-03-23T19:49:21;12.10;96.80
58638;DHT22;54976;51.510;7.522;2023-03-23T19:52:22;12.00;97.10
58638;DHT22;54976;51.510;7.522;2023-03-23T19:55:23;12.00;96.70
58638;DHT22;54976;51.510;7.522;2023-03-23T19:58:23;12.00;96.70
58638;DHT22;54976;51.510;7.522;2023-03-23T20:01:24;12.00;96.70
58638;DHT22;54976;51.510;7.522;2023-03-23T20:04:25;12.00;96.60
58638;DHT22;54976;51.510;7.522;2023-03-23T20:07:26;12.00;96.70
58638;DHT22;54976;51.510;7.522;2023-03-23T20:10:27;12.00;96.40
58638;DHT22;54976;51.510;7.522;2023-03-23T20:13:27;12.00;96.50
58638;DHT22;54976;51.510;7.522;2023-03-23T20:16:28;12.10;96.20
58638;DHT22;54976;51.510;7.522;2023-03-23T20:19:29;12.10;96.60
58638;DHT22;54976;51.510;7.522;2023-03-23T20:22:29;12.20;96.00
58638;DHT22;54976;51.510;7.522;2023-03-23T20:25:30;12.20;96.20
58638;DHT22;54976;51.510;7.522;2023-03-23T20:28:31;12.20;95.80
58638;DHT22;54976;51.510;7.522;2023-03-23T20:31:34;12.20;96.30
58638;DHT22;54976;51.510;7.522;2023-03-23T20:34:35;12.20;96.00
58638;DHT22;54976;51.510;7.522;2023-03-23T20:37:37;12.20;96.20
58638;DHT22;54976;51.510;7.522;2023-03-23T20:40:37;12.30;96.00
58638;DHT22;54976;51.510;7.522;2023-03-23T20:43:40;12.30;95.60
58638;DHT22;54976;51.510;7.522;2023-03-23T20:46:46;12.30;96.00
58638;DHT22;54976;51.510;7.522;2023-03-23T20:49:48;12.30;96.00
58638;DHT22;54976;51.510;7.522;2023-03-23T20:52:49;12.20;96.20
58638;DHT22;54976;51.510;7.522;2023-03-23T20:55:50;12.30;96.10
58638;DHT22;54976;51.510;7.522;2023-03-23T20:58:51;12.30;96.10
58638;DHT22;54976;51.510;7.522;2023-03-23T21:01:52;12.30;95.80